sensor_id;sensor_type;location;lat;lon;timestamp;P1;durP1;ratioP1;P2;durP2;ratioP2
47844;SDS011;33605;48.822;8.796;2023-08-06T00:00:00;2.77;;;2.50;;
47844;SDS011;33605;48.822;8.796;2023-08-06T00:02:26;3.57;;;2.80;;
47844;SDS011;33605;48.822;8.796;2023-08-06T00:04:52;2.80;;;2.60;;
47844;SDS011;33605;48.822;8.796;2023-08-06T00:07:18;3.20;;;2.87;;
47844;SDS011;33605;48.822;8.796;2023-08-06T00:09:44;3.70;;;2.43;;
47844;SDS011;33605;48.822;8.796;2023-08-06T00:12:10;6.00;;;2.43;;
47844;SDS011;33605;48.822;8.796;2023-08-06T00:14:36;4.43;;;2.93;;
47844;SDS011;33605;48.822;8.796;2023-08-06T00:17:02;2.80;;;2.60;;
47844;SDS011;33605;48.822;8.796;2023-08-06T00:19:29;3.47;;;2.50;;
47844;SDS011;33605;48.822;8.796;2023-08-06T00:21:55;3.00;;;2.70;;
47844;SDS011;33605;48.822;8.796;2023-08-06T00:24:21;3.37;;;2.60;;
47844;SDS011;33605;48.822;8.796;2023-08-06T00:26:47;3.53;;;2.63;;
47844;SDS011;33605;48.822;8.796;2023-08-06T00:29:13;2.87;;;2.63;;
47844;SDS011;33605;48.822;8.796;2023-08-06T00:31:39;3.30;;;2.70;;
47844;SDS011;33605;48.822;8.796;2023-08-06T00:34:07;2.77;;;2.53;;
47844;SDS011;33605;48.822;8.796;2023-08-06T00:36:33;4.07;;;3.03;;
47844;SDS011;33605;48.822;8.796;2023-08-06T00:38:59;3.70;;;3.40;;
47844;SDS011;33605;48.822;8.796;2023-08-06T00:41:25;3.17;;;2.90;;
47844;SDS011;33605;48.822;8.796;2023-08-06T00:43:51;3.40;;;3.03;;
47844;SDS011;33605;48.822;8.796;2023-08-06T00:46:17;3.00;;;2.73;;
47844;SDS011;33605;48.822;8.796;2023-08-06T00:48:43;3.20;;;2.90;;
47844;SDS011;33605;48.822;8.796;2023-08-06T00:51:09;2.70;;;2.50;;
47844;SDS011;33605;48.822;8.796;2023-08-06T00:53:37;3.37;;;3.07;;
47844;SDS011;33605;48.822;8.796;2023-08-06T00:56:03;4.20;;;3.03;;
47844;SDS011;33605;48.822;8.796;2023-08-06T00:58:29;2.67;;;2.47;;
47844;SDS011;33605;48.822;8.796;2023-08-06T01:00:55;3.40;;;3.07;;
47844;SDS011;33605;48.822;8.796;2023-08-06T01:03:21;3.37;;;3.07;;
47844;SDS011;33605;48.822;8.796;2023-08-06T01:05:48;3.43;;;3.13;;
47844;SDS011;33605;48.822;8.796;2023-08-06T01:13:42;2.80;;;2.60;;
47844;SDS011;33605;48.822;8.796;2023-08-06T01:16:09;7.90;;;2.50;;
47844;SDS011;33605;48.822;8.796;2023-08-06T01:18:35;3.00;;;2.80;;
47844;SDS011;33605;48.822;8.796;2023-08-06T01:21:06;3.70;;;2.70;;
47844;SDS011;33605;48.822;8.796;2023-08-06T01:23:32;2.63;;;2.43;;
47844;SDS011;33605;48.822;8.796;2023-08-06T01:28:32;3.47;;;3.17;;
47844;SDS011;33605;48.822;8.796;2023-08-06T01:31:00;3.00;;;2.73;;
47844;SDS011;33605;48.822;8.796;2023-08-06T01:33:28;2.80;;;2.20;;
47844;SDS011;33605;48.822;8.796;2023-08-06T01:35:55;3.60;;;2.67;;
47844;SDS011;33605;48.822;8.796;2023-08-06T01:38:21;3.00;;;2.80;;
47844;SDS011;33605;48.822;8.796;2023-08-06T01:40:47;3.20;;;2.90;;
47844;SDS011;33605;48.822;8.796;2023-08-06T01:43:13;2.90;;;2.60;;
47844;SDS011;33605;48.822;8.796;2023-08-06T01:45:39;3.30;;;2.73;;
47844;SDS011;33605;48.822;8.796;2023-08-06T01:48:05;3.03;;;2.47;;
47844;SDS011;33605;48.822;8.796;2023-08-06T01:50:31;3.10;;;2.80;;
47844;SDS011;33605;48.822;8.796;2023-08-06T01:52:57;2.67;;;2.47;;
47844;SDS011;33605;48.822;8.796;2023-08-06T01:55:23;4.57;;;3.00;;
47844;SDS011;33605;48.822;8.796;2023-08-06T01:57:49;2.77;;;2.57;;
47844;SDS011;33605;48.822;8.796;2023-08-06T02:00:15;3.00;;;2.80;;
47844;SDS011;33605;48.822;8.796;2023-08-06T02:02:41;3.90;;;3.20;;
47844;SDS011;33605;48.822;8.796;2023-08-06T02:05:07;3.27;;;2.97;;
47844;SDS011;33605;48.822;8.796;2023-08-06T02:07:33;3.23;;;2.93;;
47844;SDS011;33605;48.822;8.796;2023-08-06T02:09:59;3.53;;;3.23;;
47844;SDS011;33605;48.822;8.796;2023-08-06T02:12:25;3.20;;;2.90;;
47844;SDS011;33605;48.822;8.796;2023-08-06T02:14:51;3.93;;;2.73;;
47844;SDS011;33605;48.822;8.796;2023-08-06T02:17:17;3.23;;;2.93;;
47844;SDS011;33605;48.822;8.796;2023-08-06T02:19:43;4.00;;;2.60;;
47844;SDS011;33605;48.822;8.796;2023-08-06T02:22:09;2.90;;;2.70;;
47844;SDS011;33605;48.822;8.796;2023-08-06T02:24:35;2.87;;;2.67;;
47844;SDS011;33605;48.822;8.796;2023-08-06T02:27:01;3.00;;;2.70;;
47844;SDS011;33605;48.822;8.796;2023-08-06T02:29:27;3.20;;;2.90;;
47844;SDS011;33605;48.822;8.796;2023-08-06T02:31:53;2.63;;;2.23;;
47844;SDS011;33605;48.822;8.796;2023-08-06T02:34:19;3.53;;;3.00;;
47844;SDS011;33605;48.822;8.796;2023-08-06T02:36:45;2.50;;;2.30;;
47844;SDS011;33605;48.822;8.796;2023-08-06T02:39:11;3.40;;;3.10;;
47844;SDS011;33605;48.822;8.796;2023-08-06T02:41:40;2.70;;;2.50;;
47844;SDS011;33605;48.822;8.796;2023-08-06T02:44:06;4.80;;;3.20;;
47844;SDS011;33605;48.822;8.796;2023-08-06T02:46:32;3.20;;;2.90;;
47844;SDS011;33605;48.822;8.796;2023-08-06T02:48:58;2.67;;;2.47;;
47844;SDS011;33605;48.822;8.796;2023-08-06T02:51:24;4.37;;;2.43;;
47844;SDS011;33605;48.822;8.796;2023-08-06T02:53:50;3.40;;;2.20;;
47844;SDS011;33605;48.822;8.796;2023-08-06T02:56:16;2.70;;;2.20;;
47844;SDS011;33605;48.822;8.796;2023-08-06T02:58:42;4.07;;;2.70;;
47844;SDS011;33605;48.822;8.796;2023-08-06T03:01:08;5.43;;;2.80;;
47844;SDS011;33605;48.822;8.796;2023-08-06T03:03:34;3.10;;;2.30;;
47844;SDS011;33605;48.822;8.796;2023-08-06T03:06:00;2.73;;;2.53;;
47844;SDS011;33605;48.822;8.796;2023-08-06T03:08:26;3.00;;;2.50;;
47844;SDS011;33605;48.822;8.796;2023-08-06T03:10:52;3.50;;;2.70;;
47844;SDS011;33605;48.822;8.796;2023-08-06T03:13:19;3.30;;;2.60;;
47844;SDS011;33605;48.822;8.796;2023-08-06T03:15:51;4.03;;;2.90;;
47844;SDS011;33605;48.822;8.796;2023-08-06T03:18:18;3.47;;;2.33;;
47844;SDS011;33605;48.822;8.796;2023-08-06T03:20:44;2.17;;;1.97;;
47844;SDS011;33605;48.822;8.796;2023-08-06T03:23:10;2.50;;;2.10;;
47844;SDS011;33605;48.822;8.796;2023-08-06T03:25:36;2.70;;;2.50;;
47844;SDS011;33605;48.822;8.796;2023-08-06T03:28:02;3.77;;;2.67;;
47844;SDS011;33605;48.822;8.796;2023-08-06T03:30:28;2.30;;;2.10;;
47844;SDS011;33605;48.822;8.796;2023-08-06T03:32:54;4.53;;;2.20;;
47844;SDS011;33605;48.822;8.796;2023-08-06T03:35:20;2.50;;;2.17;;
47844;SDS011;33605;48.822;8.796;2023-08-06T03:37:47;3.43;;;2.50;;
47844;SDS011;33605;48.822;8.796;2023-08-06T03:40:14;4.20;;;2.37;;
47844;SDS011;33605;48.822;8.796;2023-08-06T03:42:40;3.10;;;2.20;;
47844;SDS011;33605;48.822;8.796;2023-08-06T03:45:07;3.60;;;2.50;;
47844;SDS011;33605;48.822;8.796;2023-08-06T03:47:33;3.60;;;2.50;;
47844;SDS011;33605;48.822;8.796;2023-08-06T03:49:59;2.97;;;2.20;;
47844;SDS011;33605;48.822;8.796;2023-08-06T03:52:25;3.27;;;2.60;;
47844;SDS011;33605;48.822;8.796;2023-08-06T03:54:51;2.90;;;2.63;;
47844;SDS011;33605;48.822;8.796;2023-08-06T03:57:17;2.20;;;2.00;;
47844;SDS011;33605;48.822;8.796;2023-08-06T03:59:44;2.40;;;2.20;;
47844;SDS011;33605;48.822;8.796;2023-08-06T04:02:10;2.93;;;2.50;;
47844;SDS011;33605;48.822;8.796;2023-08-06T04:04:35;2.77;;;1.93;;
47844;SDS011;33605;48.822;8.796;2023-08-06T04:07:02;2.40;;;2.20;;
47844;SDS011;33605;48.822;8.796;2023-08-06T04:09:28;2.20;;;1.77;;
47844;SDS011;33605;48.822;8.796;2023-08-06T04:11:54;2.17;;;1.87;;
47844;SDS011;33605;48.822;8.796;2023-08-06T04:14:21;2.77;;;1.93;;
47844;SDS011;33605;48.822;8.796;2023-08-06T04:16:47;1.50;;;1.40;;
47844;SDS011;33605;48.822;8.796;2023-08-06T04:19:13;2.00;;;1.90;;
47844;SDS011;33605;48.822;8.796;2023-08-06T04:21:39;2.20;;;1.20;;
47844;SDS011;33605;48.822;8.796;2023-08-06T04:24:05;2.10;;;1.67;;
47844;SDS011;33605;48.822;8.796;2023-08-06T04:26:31;4.63;;;1.53;;
47844;SDS011;33605;48.822;8.796;2023-08-06T04:28:57;4.33;;;1.63;;
47844;SDS011;33605;48.822;8.796;2023-08-06T04:31:23;1.73;;;1.37;;
47844;SDS011;33605;48.822;8.796;2023-08-06T04:33:48;1.77;;;1.60;;
47844;SDS011;33605;48.822;8.796;2023-08-06T04:36:14;1.33;;;1.20;;
47844;SDS011;33605;48.822;8.796;2023-08-06T04:38:40;8.10;;;1.63;;
47844;SDS011;33605;48.822;8.796;2023-08-06T04:41:10;2.33;;;1.50;;
47844;SDS011;33605;48.822;8.796;2023-08-06T04:43:36;1.40;;;1.30;;
47844;SDS011;33605;48.822;8.796;2023-08-06T04:46:02;1.87;;;1.70;;
47844;SDS011;33605;48.822;8.796;2023-08-06T04:48:28;2.60;;;2.40;;
47844;SDS011;33605;48.822;8.796;2023-08-06T04:50:54;2.30;;;1.50;;
47844;SDS011;33605;48.822;8.796;2023-08-06T04:53:20;1.63;;;1.37;;
47844;SDS011;33605;48.822;8.796;2023-08-06T04:55:46;1.57;;;1.37;;
47844;SDS011;33605;48.822;8.796;2023-08-06T04:58:12;1.37;;;1.03;;
47844;SDS011;33605;48.822;8.796;2023-08-06T05:00:38;1.23;;;1.10;;
47844;SDS011;33605;48.822;8.796;2023-08-06T05:03:05;3.60;;;1.30;;
47844;SDS011;33605;48.822;8.796;2023-08-06T05:05:31;1.47;;;1.27;;
47844;SDS011;33605;48.822;8.796;2023-08-06T05:07:57;1.43;;;1.33;;
47844;SDS011;33605;48.822;8.796;2023-08-06T05:10:26;1.30;;;1.00;;
47844;SDS011;33605;48.822;8.796;2023-08-06T05:12:53;2.47;;;1.10;;
47844;SDS011;33605;48.822;8.796;2023-08-06T05:15:19;2.10;;;1.40;;
47844;SDS011;33605;48.822;8.796;2023-08-06T05:17:45;1.60;;;1.50;;
47844;SDS011;33605;48.822;8.796;2023-08-06T05:20:11;1.50;;;1.40;;
47844;SDS011;33605;48.822;8.796;2023-08-06T05:22:37;1.27;;;1.00;;
47844;SDS011;33605;48.822;8.796;2023-08-06T05:25:03;1.10;;;1.00;;
47844;SDS011;33605;48.822;8.796;2023-08-06T05:27:29;1.37;;;1.17;;
47844;SDS011;33605;48.822;8.796;2023-08-06T05:29:55;2.60;;;1.50;;
47844;SDS011;33605;48.822;8.796;2023-08-06T05:32:22;1.67;;;1.30;;
47844;SDS011;33605;48.822;8.796;2023-08-06T05:34:48;2.60;;;1.17;;
47844;SDS011;33605;48.822;8.796;2023-08-06T05:37:14;2.10;;;1.20;;
47844;SDS011;33605;48.822;8.796;2023-08-06T05:39:40;1.37;;;1.10;;
47844;SDS011;33605;48.822;8.796;2023-08-06T05:42:06;1.30;;;1.20;;
47844;SDS011;33605;48.822;8.796;2023-08-06T05:44:32;2.47;;;1.13;;
47844;SDS011;33605;48.822;8.796;2023-08-06T05:46:58;1.30;;;1.20;;
47844;SDS011;33605;48.822;8.796;2023-08-06T05:49:24;1.30;;;1.20;;
47844;SDS011;33605;48.822;8.796;2023-08-06T05:51:50;2.90;;;1.33;;
47844;SDS011;33605;48.822;8.796;2023-08-06T05:54:18;1.57;;;1.20;;
47844;SDS011;33605;48.822;8.796;2023-08-06T05:56:44;2.73;;;2.47;;
47844;SDS011;33605;48.822;8.796;2023-08-06T05:59:10;4.70;;;1.60;;
47844;SDS011;33605;48.822;8.796;2023-08-06T06:01:36;1.60;;;1.50;;
47844;SDS011;33605;48.822;8.796;2023-08-06T06:04:02;1.30;;;1.20;;
47844;SDS011;33605;48.822;8.796;2023-08-06T06:06:29;3.10;;;1.37;;
47844;SDS011;33605;48.822;8.796;2023-08-06T06:08:55;1.03;;;0.93;;
47844;SDS011;33605;48.822;8.796;2023-08-06T06:11:21;1.10;;;1.00;;
47844;SDS011;33605;48.822;8.796;2023-08-06T06:13:50;2.50;;;1.30;;
47844;SDS011;33605;48.822;8.796;2023-08-06T06:16:17;1.40;;;1.30;;
47844;SDS011;33605;48.822;8.796;2023-08-06T06:18:43;4.60;;;1.30;;
47844;SDS011;33605;48.822;8.796;2023-08-06T06:21:09;1.47;;;1.37;;
47844;SDS011;33605;48.822;8.796;2023-08-06T06:23:36;1.20;;;1.10;;
47844;SDS011;33605;48.822;8.796;2023-08-06T06:26:02;1.30;;;1.20;;
47844;SDS011;33605;48.822;8.796;2023-08-06T06:28:28;1.20;;;1.10;;
47844;SDS011;33605;48.822;8.796;2023-08-06T06:30:54;2.97;;;1.20;;
47844;SDS011;33605;48.822;8.796;2023-08-06T06:33:25;1.33;;;1.23;;
47844;SDS011;33605;48.822;8.796;2023-08-06T06:35:52;1.63;;;1.30;;
47844;SDS011;33605;48.822;8.796;2023-08-06T06:38:18;1.53;;;1.27;;
47844;SDS011;33605;48.822;8.796;2023-08-06T06:40:46;1.10;;;1.00;;
47844;SDS011;33605;48.822;8.796;2023-08-06T06:43:18;1.70;;;1.00;;
47844;SDS011;33605;48.822;8.796;2023-08-06T06:45:44;1.30;;;0.93;;
47844;SDS011;33605;48.822;8.796;2023-08-06T06:48:10;1.27;;;1.17;;
47844;SDS011;33605;48.822;8.796;2023-08-06T06:50:36;1.40;;;1.30;;
47844;SDS011;33605;48.822;8.796;2023-08-06T06:53:04;1.43;;;1.13;;
47844;SDS011;33605;48.822;8.796;2023-08-06T06:55:30;0.83;;;0.83;;
47844;SDS011;33605;48.822;8.796;2023-08-06T06:57:56;1.07;;;0.97;;
47844;SDS011;33605;48.822;8.796;2023-08-06T07:00:22;1.00;;;0.90;;
47844;SDS011;33605;48.822;8.796;2023-08-06T07:02:48;1.10;;;1.00;;
47844;SDS011;33605;48.822;8.796;2023-08-06T07:05:14;1.30;;;1.20;;
47844;SDS011;33605;48.822;8.796;2023-08-06T07:07:40;3.03;;;1.00;;
47844;SDS011;33605;48.822;8.796;2023-08-06T07:10:06;1.13;;;1.00;;
47844;SDS011;33605;48.822;8.796;2023-08-06T07:12:32;0.80;;;0.80;;
47844;SDS011;33605;48.822;8.796;2023-08-06T07:14:58;0.97;;;0.80;;
47844;SDS011;33605;48.822;8.796;2023-08-06T07:17:24;1.00;;;0.90;;
47844;SDS011;33605;48.822;8.796;2023-08-06T07:19:50;0.90;;;0.80;;
47844;SDS011;33605;48.822;8.796;2023-08-06T07:22:16;0.80;;;0.80;;
47844;SDS011;33605;48.822;8.796;2023-08-06T07:24:42;2.60;;;1.00;;
47844;SDS011;33605;48.822;8.796;2023-08-06T07:27:08;1.00;;;0.80;;
47844;SDS011;33605;48.822;8.796;2023-08-06T07:29:34;1.27;;;1.00;;
47844;SDS011;33605;48.822;8.796;2023-08-06T07:32:00;0.80;;;0.80;;
47844;SDS011;33605;48.822;8.796;2023-08-06T07:34:27;1.10;;;1.00;;
47844;SDS011;33605;48.822;8.796;2023-08-06T07:36:53;1.30;;;1.00;;
47844;SDS011;33605;48.822;8.796;2023-08-06T07:39:19;1.00;;;0.90;;
47844;SDS011;33605;48.822;8.796;2023-08-06T07:41:45;1.20;;;1.10;;
47844;SDS011;33605;48.822;8.796;2023-08-06T07:44:11;0.90;;;0.80;;
47844;SDS011;33605;48.822;8.796;2023-08-06T07:46:37;1.00;;;0.80;;
47844;SDS011;33605;48.822;8.796;2023-08-06T07:49:04;1.17;;;1.07;;
47844;SDS011;33605;48.822;8.796;2023-08-06T07:51:30;1.20;;;0.97;;
47844;SDS011;33605;48.822;8.796;2023-08-06T07:53:56;1.07;;;1.00;;
47844;SDS011;33605;48.822;8.796;2023-08-06T07:56:22;0.80;;;0.80;;
47844;SDS011;33605;48.822;8.796;2023-08-06T07:58:48;1.13;;;1.00;;
47844;SDS011;33605;48.822;8.796;2023-08-06T08:01:14;0.80;;;0.77;;
47844;SDS011;33605;48.822;8.796;2023-08-06T08:03:40;0.80;;;0.80;;
47844;SDS011;33605;48.822;8.796;2023-08-06T08:06:06;0.87;;;0.87;;
47844;SDS011;33605;48.822;8.796;2023-08-06T08:08:32;0.83;;;0.80;;
47844;SDS011;33605;48.822;8.796;2023-08-06T08:10:58;1.20;;;1.10;;
47844;SDS011;33605;48.822;8.796;2023-08-06T08:13:25;1.20;;;1.10;;
47844;SDS011;33605;48.822;8.796;2023-08-06T08:15:56;0.90;;;0.80;;
47844;SDS011;33605;48.822;8.796;2023-08-06T08:18:22;0.90;;;0.80;;
47844;SDS011;33605;48.822;8.796;2023-08-06T08:20:48;1.37;;;0.87;;
47844;SDS011;33605;48.822;8.796;2023-08-06T08:23:14;1.10;;;0.83;;
47844;SDS011;33605;48.822;8.796;2023-08-06T08:25:40;0.80;;;0.77;;
47844;SDS011;33605;48.822;8.796;2023-08-06T08:28:06;3.03;;;0.80;;
47844;SDS011;33605;48.822;8.796;2023-08-06T08:30:33;1.07;;;0.90;;
47844;SDS011;33605;48.822;8.796;2023-08-06T08:32:59;0.80;;;0.70;;
47844;SDS011;33605;48.822;8.796;2023-08-06T08:35:24;1.17;;;0.83;;
47844;SDS011;33605;48.822;8.796;2023-08-06T08:37:51;1.37;;;1.00;;
47844;SDS011;33605;48.822;8.796;2023-08-06T08:40:17;0.90;;;0.80;;
47844;SDS011;33605;48.822;8.796;2023-08-06T08:42:43;0.80;;;0.70;;
47844;SDS011;33605;48.822;8.796;2023-08-06T08:45:13;0.80;;;0.70;;
47844;SDS011;33605;48.822;8.796;2023-08-06T08:47:40;0.80;;;0.80;;
47844;SDS011;33605;48.822;8.796;2023-08-06T08:50:07;0.80;;;0.80;;
47844;SDS011;33605;48.822;8.796;2023-08-06T08:52:34;0.80;;;0.80;;
47844;SDS011;33605;48.822;8.796;2023-08-06T08:55:01;0.80;;;0.70;;
47844;SDS011;33605;48.822;8.796;2023-08-06T08:57:27;0.80;;;0.73;;
47844;SDS011;33605;48.822;8.796;2023-08-06T08:59:53;0.80;;;0.80;;
47844;SDS011;33605;48.822;8.796;2023-08-06T09:02:20;0.80;;;0.70;;
47844;SDS011;33605;48.822;8.796;2023-08-06T09:04:47;0.80;;;0.80;;
47844;SDS011;33605;48.822;8.796;2023-08-06T09:07:16;2.60;;;1.57;;
47844;SDS011;33605;48.822;8.796;2023-08-06T09:09:43;0.80;;;0.80;;
47844;SDS011;33605;48.822;8.796;2023-08-06T09:12:12;1.67;;;1.40;;
47844;SDS011;33605;48.822;8.796;2023-08-06T09:14:39;1.87;;;1.73;;
47844;SDS011;33605;48.822;8.796;2023-08-06T09:17:05;2.00;;;0.80;;
47844;SDS011;33605;48.822;8.796;2023-08-06T09:19:32;1.20;;;1.10;;
47844;SDS011;33605;48.822;8.796;2023-08-06T09:21:58;1.40;;;1.30;;
47844;SDS011;33605;48.822;8.796;2023-08-06T09:24:24;1.07;;;0.97;;
47844;SDS011;33605;48.822;8.796;2023-08-06T09:26:51;0.90;;;0.90;;
47844;SDS011;33605;48.822;8.796;2023-08-06T09:29:18;1.00;;;0.90;;
47844;SDS011;33605;48.822;8.796;2023-08-06T09:31:44;0.90;;;0.90;;
47844;SDS011;33605;48.822;8.796;2023-08-06T09:34:17;0.97;;;0.90;;
47844;SDS011;33605;48.822;8.796;2023-08-06T09:36:47;1.10;;;1.00;;
47844;SDS011;33605;48.822;8.796;2023-08-06T09:39:13;0.80;;;0.80;;
47844;SDS011;33605;48.822;8.796;2023-08-06T09:41:40;1.00;;;0.83;;
47844;SDS011;33605;48.822;8.796;2023-08-06T09:44:14;0.80;;;0.80;;
47844;SDS011;33605;48.822;8.796;2023-08-06T09:46:53;0.87;;;0.87;;
47844;SDS011;33605;48.822;8.796;2023-08-06T09:49:22;0.80;;;0.80;;
47844;SDS011;33605;48.822;8.796;2023-08-06T09:51:48;0.80;;;0.80;;
47844;SDS011;33605;48.822;8.796;2023-08-06T09:54:16;0.80;;;0.80;;
47844;SDS011;33605;48.822;8.796;2023-08-06T09:56:43;1.10;;;1.00;;
47844;SDS011;33605;48.822;8.796;2023-08-06T09:59:09;1.17;;;0.70;;
47844;SDS011;33605;48.822;8.796;2023-08-06T10:01:38;1.10;;;0.90;;
47844;SDS011;33605;48.822;8.796;2023-08-06T10:04:04;0.90;;;0.80;;
47844;SDS011;33605;48.822;8.796;2023-08-06T10:06:35;1.20;;;1.10;;
47844;SDS011;33605;48.822;8.796;2023-08-06T10:09:02;1.30;;;1.20;;
47844;SDS011;33605;48.822;8.796;2023-08-06T10:11:28;1.63;;;1.53;;
47844;SDS011;33605;48.822;8.796;2023-08-06T10:14:06;4.10;;;1.00;;
47844;SDS011;33605;48.822;8.796;2023-08-06T10:16:34;0.90;;;0.90;;
47844;SDS011;33605;48.822;8.796;2023-08-06T10:19:01;1.00;;;0.90;;
47844;SDS011;33605;48.822;8.796;2023-08-06T10:21:27;0.80;;;0.80;;
47844;SDS011;33605;48.822;8.796;2023-08-06T10:23:55;1.40;;;1.30;;
47844;SDS011;33605;48.822;8.796;2023-08-06T10:26:25;1.10;;;0.90;;
47844;SDS011;33605;48.822;8.796;2023-08-06T10:28:51;1.27;;;1.10;;
47844;SDS011;33605;48.822;8.796;2023-08-06T10:31:18;3.33;;;2.67;;
47844;SDS011;33605;48.822;8.796;2023-08-06T10:33:45;2.73;;;2.53;;
47844;SDS011;33605;48.822;8.796;2023-08-06T10:36:11;10.00;;;7.17;;
47844;SDS011;33605;48.822;8.796;2023-08-06T10:38:44;10.00;;;6.07;;
47844;SDS011;33605;48.822;8.796;2023-08-06T10:41:14;1.67;;;1.40;;
47844;SDS011;33605;48.822;8.796;2023-08-06T10:43:41;1.10;;;1.00;;
47844;SDS011;33605;48.822;8.796;2023-08-06T10:46:09;1.90;;;1.10;;
47844;SDS011;33605;48.822;8.796;2023-08-06T10:48:36;1.00;;;0.90;;
47844;SDS011;33605;48.822;8.796;2023-08-06T10:51:03;1.07;;;0.97;;
47844;SDS011;33605;48.822;8.796;2023-08-06T10:53:29;1.20;;;1.10;;
47844;SDS011;33605;48.822;8.796;2023-08-06T10:55:55;1.00;;;1.00;;
47844;SDS011;33605;48.822;8.796;2023-08-06T10:58:21;1.30;;;1.20;;
47844;SDS011;33605;48.822;8.796;2023-08-06T11:00:47;2.73;;;1.97;;
47844;SDS011;33605;48.822;8.796;2023-08-06T11:03:14;1.67;;;1.57;;
47844;SDS011;33605;48.822;8.796;2023-08-06T11:05:40;2.50;;;1.80;;
47844;SDS011;33605;48.822;8.796;2023-08-06T11:08:06;1.97;;;1.80;;
47844;SDS011;33605;48.822;8.796;2023-08-06T11:10:32;2.37;;;2.00;;
47844;SDS011;33605;48.822;8.796;2023-08-06T11:13:03;2.23;;;2.03;;
47844;SDS011;33605;48.822;8.796;2023-08-06T11:15:32;1.90;;;1.70;;
47844;SDS011;33605;48.822;8.796;2023-08-06T11:17:59;1.50;;;1.40;;
47844;SDS011;33605;48.822;8.796;2023-08-06T11:20:25;4.07;;;1.97;;
47844;SDS011;33605;48.822;8.796;2023-08-06T11:22:51;2.33;;;1.80;;
47844;SDS011;33605;48.822;8.796;2023-08-06T11:25:19;1.40;;;1.30;;
47844;SDS011;33605;48.822;8.796;2023-08-06T11:27:46;2.77;;;1.80;;
47844;SDS011;33605;48.822;8.796;2023-08-06T11:30:14;1.70;;;1.60;;
47844;SDS011;33605;48.822;8.796;2023-08-06T11:32:46;2.10;;;1.67;;
47844;SDS011;33605;48.822;8.796;2023-08-06T11:35:13;2.07;;;1.43;;
47844;SDS011;33605;48.822;8.796;2023-08-06T11:37:39;3.80;;;2.50;;
47844;SDS011;33605;48.822;8.796;2023-08-06T11:40:08;2.63;;;2.20;;
47844;SDS011;33605;48.822;8.796;2023-08-06T11:42:35;1.90;;;1.80;;
47844;SDS011;33605;48.822;8.796;2023-08-06T11:45:04;2.87;;;2.10;;
47844;SDS011;33605;48.822;8.796;2023-08-06T11:47:30;1.80;;;1.67;;
47844;SDS011;33605;48.822;8.796;2023-08-06T11:49:56;3.13;;;1.90;;
47844;SDS011;33605;48.822;8.796;2023-08-06T11:52:23;3.20;;;2.43;;
47844;SDS011;33605;48.822;8.796;2023-08-06T11:55:05;3.93;;;2.10;;
47844;SDS011;33605;48.822;8.796;2023-08-06T11:57:33;3.20;;;2.00;;
47844;SDS011;33605;48.822;8.796;2023-08-06T12:00:04;2.30;;;2.07;;
47844;SDS011;33605;48.822;8.796;2023-08-06T12:02:32;2.73;;;1.93;;
47844;SDS011;33605;48.822;8.796;2023-08-06T12:05:32;2.67;;;2.40;;
47844;SDS011;33605;48.822;8.796;2023-08-06T12:10:17;3.73;;;3.43;;
47844;SDS011;33605;48.822;8.796;2023-08-06T12:12:47;3.73;;;3.07;;
47844;SDS011;33605;48.822;8.796;2023-08-06T12:15:13;3.43;;;2.00;;
47844;SDS011;33605;48.822;8.796;2023-08-06T12:17:39;1.90;;;1.80;;
47844;SDS011;33605;48.822;8.796;2023-08-06T12:20:06;2.40;;;2.20;;
47844;SDS011;33605;48.822;8.796;2023-08-06T12:22:33;3.80;;;2.50;;
47844;SDS011;33605;48.822;8.796;2023-08-06T12:25:04;2.30;;;2.00;;
47844;SDS011;33605;48.822;8.796;2023-08-06T12:27:33;1.80;;;1.70;;
47844;SDS011;33605;48.822;8.796;2023-08-06T12:29:59;1.60;;;1.50;;
47844;SDS011;33605;48.822;8.796;2023-08-06T12:32:25;1.57;;;1.47;;
47844;SDS011;33605;48.822;8.796;2023-08-06T12:34:51;1.30;;;1.20;;
47844;SDS011;33605;48.822;8.796;2023-08-06T12:37:16;1.77;;;1.60;;
47844;SDS011;33605;48.822;8.796;2023-08-06T12:39:43;2.27;;;1.53;;
47844;SDS011;33605;48.822;8.796;2023-08-06T12:42:09;2.07;;;1.60;;
47844;SDS011;33605;48.822;8.796;2023-08-06T12:44:35;4.40;;;1.83;;
47844;SDS011;33605;48.822;8.796;2023-08-06T12:47:01;3.80;;;1.90;;
47844;SDS011;33605;48.822;8.796;2023-08-06T12:49:27;3.03;;;2.13;;
47844;SDS011;33605;48.822;8.796;2023-08-06T12:51:54;2.10;;;1.90;;
47844;SDS011;33605;48.822;8.796;2023-08-06T12:54:21;4.13;;;2.10;;
47844;SDS011;33605;48.822;8.796;2023-08-06T12:56:48;2.63;;;2.43;;
47844;SDS011;33605;48.822;8.796;2023-08-06T12:59:15;3.10;;;1.60;;
47844;SDS011;33605;48.822;8.796;2023-08-06T13:01:42;1.70;;;1.60;;
47844;SDS011;33605;48.822;8.796;2023-08-06T13:04:08;2.80;;;1.80;;
47844;SDS011;33605;48.822;8.796;2023-08-06T13:06:34;4.60;;;4.20;;
47844;SDS011;33605;48.822;8.796;2023-08-06T13:09:08;1.90;;;1.80;;
47844;SDS011;33605;48.822;8.796;2023-08-06T13:11:35;2.27;;;1.50;;
47844;SDS011;33605;48.822;8.796;2023-08-06T13:14:08;2.87;;;1.70;;
47844;SDS011;33605;48.822;8.796;2023-08-06T13:16:34;1.70;;;1.50;;
47844;SDS011;33605;48.822;8.796;2023-08-06T13:19:01;1.53;;;1.13;;
47844;SDS011;33605;48.822;8.796;2023-08-06T13:21:30;5.37;;;3.30;;
47844;SDS011;33605;48.822;8.796;2023-08-06T13:23:56;2.70;;;2.17;;
47844;SDS011;33605;48.822;8.796;2023-08-06T13:26:22;1.60;;;1.50;;
47844;SDS011;33605;48.822;8.796;2023-08-06T13:28:48;3.60;;;1.53;;
47844;SDS011;33605;48.822;8.796;2023-08-06T13:31:16;1.47;;;1.37;;
47844;SDS011;33605;48.822;8.796;2023-08-06T13:33:42;2.53;;;2.00;;
47844;SDS011;33605;48.822;8.796;2023-08-06T13:36:08;1.70;;;1.60;;
47844;SDS011;33605;48.822;8.796;2023-08-06T13:38:34;2.30;;;1.50;;
47844;SDS011;33605;48.822;8.796;2023-08-06T13:41:00;1.27;;;1.17;;
47844;SDS011;33605;48.822;8.796;2023-08-06T13:43:27;1.90;;;1.50;;
47844;SDS011;33605;48.822;8.796;2023-08-06T13:45:53;2.30;;;1.50;;
47844;SDS011;33605;48.822;8.796;2023-08-06T13:48:19;1.73;;;1.20;;
47844;SDS011;33605;48.822;8.796;2023-08-06T13:50:45;2.00;;;1.80;;
47844;SDS011;33605;48.822;8.796;2023-08-06T13:53:11;1.70;;;1.33;;
47844;SDS011;33605;48.822;8.796;2023-08-06T13:55:37;1.60;;;1.50;;
47844;SDS011;33605;48.822;8.796;2023-08-06T13:58:03;3.27;;;1.40;;
47844;SDS011;33605;48.822;8.796;2023-08-06T14:00:29;1.40;;;1.30;;
47844;SDS011;33605;48.822;8.796;2023-08-06T14:02:55;8.80;;;2.83;;
47844;SDS011;33605;48.822;8.796;2023-08-06T14:05:21;2.47;;;2.27;;
47844;SDS011;33605;48.822;8.796;2023-08-06T14:07:47;1.30;;;1.20;;
47844;SDS011;33605;48.822;8.796;2023-08-06T14:10:13;1.80;;;1.23;;
47844;SDS011;33605;48.822;8.796;2023-08-06T14:12:39;2.20;;;1.33;;
47844;SDS011;33605;48.822;8.796;2023-08-06T14:15:05;1.50;;;1.40;;
47844;SDS011;33605;48.822;8.796;2023-08-06T14:17:31;3.43;;;1.40;;
47844;SDS011;33605;48.822;8.796;2023-08-06T14:19:57;1.97;;;1.50;;
47844;SDS011;33605;48.822;8.796;2023-08-06T14:22:25;1.43;;;1.33;;
47844;SDS011;33605;48.822;8.796;2023-08-06T14:24:51;1.90;;;1.50;;
47844;SDS011;33605;48.822;8.796;2023-08-06T14:27:18;3.20;;;1.67;;
47844;SDS011;33605;48.822;8.796;2023-08-06T14:29:44;2.20;;;1.30;;
47844;SDS011;33605;48.822;8.796;2023-08-06T14:32:10;1.70;;;1.53;;
47844;SDS011;33605;48.822;8.796;2023-08-06T14:34:36;1.43;;;1.33;;
47844;SDS011;33605;48.822;8.796;2023-08-06T14:37:02;8.00;;;1.30;;
47844;SDS011;33605;48.822;8.796;2023-08-06T14:39:28;2.47;;;1.30;;
47844;SDS011;33605;48.822;8.796;2023-08-06T14:41:54;1.30;;;1.20;;
47844;SDS011;33605;48.822;8.796;2023-08-06T14:44:19;1.30;;;1.20;;
47844;SDS011;33605;48.822;8.796;2023-08-06T14:46:45;1.50;;;1.40;;
47844;SDS011;33605;48.822;8.796;2023-08-06T14:49:11;1.37;;;1.17;;
47844;SDS011;33605;48.822;8.796;2023-08-06T14:51:37;2.37;;;1.40;;
47844;SDS011;33605;48.822;8.796;2023-08-06T14:54:04;1.20;;;1.10;;